Time;durP1;ratioP1;P1;durP2;ratioP2;P2;SDS_P1;SDS_P2;PMS_P1;PMS_P2;Temp;Humidity;BMP_temperature;BMP_pressure;BME280_temperature;BME280_humidity;BME280_pressure;Samples;Min_cycle;Max_cycle;Signal;HPM_P1;HPM_P2
2021/07/27 00:02:00;;;;;;;6.38;4.70;;;22.90;99.90;;;;;;4947779;29;20546;-82
2021/07/27 00:04:26;;;;;;;6.72;5.05;;;22.80;99.90;;;;;;4933390;29;20034;-85
2021/07/27 00:06:51;;;;;;;8.27;5.63;;;22.80;99.90;;;;;;4931731;28;20074;-83
2021/07/27 00:09:17;;;;;;;5.68;5.07;;;22.80;99.90;;;;;;4932661;29;20056;-81
2021/07/27 00:11:43;;;;;;;7.10;5.07;;;22.80;99.90;;;;;;4933154;28;20483;-79
2021/07/27 00:14:08;;;;;;;5.30;4.60;;;22.80;99.90;;;;;;4932690;28;20066;-79
2021/07/27 00:16:34;;;;;;;5.85;4.93;;;22.80;99.90;;;;;;4932796;28;20140;-80
2021/07/27 00:18:59;;;;;;;5.72;4.88;;;22.80;99.90;;;;;;4931605;29;20024;-83
2021/07/27 00:21:25;;;;;;;7.22;5.55;;;22.80;99.90;;;;;;4932853;29;20028;-82
2021/07/27 00:23:51;;;;;;;8.13;5.57;;;22.80;99.90;;;;;;4933079;28;20429;-79
2021/07/27 00:26:16;;;;;;;8.63;5.70;;;22.80;99.90;;;;;;4932770;29;20035;-78
2021/07/27 00:28:43;;;;;;;9.52;5.50;;;22.80;99.90;;;;;;4932833;29;20399;-81
2021/07/27 00:31:19;;;;;;;6.22;5.28;;;22.80;99.90;;;;;;4946586;28;20031;-81
2021/07/27 00:33:46;;;;;;;9.05;5.75;;;22.80;99.90;;;;;;4932685;29;20035;-78
2021/07/27 00:36:12;;;;;;;7.63;5.85;;;22.80;99.90;;;;;;4931697;28;20040;-78
2021/07/27 00:38:38;;;;;;;7.05;5.65;;;22.80;99.90;;;;;;4932458;28;20439;-78
2021/07/27 00:41:04;;;;;;;6.22;5.43;;;22.80;99.90;;;;;;4932806;29;20056;-81
2021/07/27 00:43:29;;;;;;;9.15;6.18;;;22.80;99.90;;;;;;4932341;28;20036;-78
2021/07/27 00:45:55;;;;;;;8.45;6.22;;;22.80;99.90;;;;;;4933108;29;20024;-76
2021/07/27 00:48:21;;;;;;;7.45;5.85;;;22.80;99.90;;;;;;4932313;29;20399;-79
2021/07/27 00:50:47;;;;;;;9.10;5.82;;;22.70;99.90;;;;;;4932408;29;20098;-78
2021/07/27 00:53:14;;;;;;;8.05;5.50;;;22.70;99.90;;;;;;4932446;28;20032;-84
2021/07/27 00:55:40;;;;;;;7.88;6.32;;;22.70;99.90;;;;;;4932191;29;20035;-77
2021/07/27 00:58:06;;;;;;;6.85;5.70;;;22.80;99.90;;;;;;4932144;29;20038;-81
2021/07/27 01:00:32;;;;;;;7.95;5.75;;;22.80;99.90;;;;;;4932072;29;20110;-78
2021/07/27 01:02:57;;;;;;;7.30;5.25;;;22.70;99.90;;;;;;4932749;28;20019;-75
2021/07/27 01:05:25;;;;;;;6.80;5.43;;;22.70;99.90;;;;;;4932081;29;20110;-80
2021/07/27 01:07:51;;;;;;;10.55;5.93;;;22.70;99.90;;;;;;4946807;28;20032;-78
2021/07/27 01:10:17;;;;;;;6.82;5.20;;;22.70;99.90;;;;;;4930927;28;20050;-77
2021/07/27 01:12:47;;;;;;;6.45;5.75;;;22.70;99.90;;;;;;4932313;29;20047;-77
2021/07/27 01:15:13;;;;;;;6.53;5.40;;;22.70;99.90;;;;;;4932190;29;20085;-81
2021/07/27 01:17:39;;;;;;;7.22;5.60;;;22.70;99.90;;;;;;4932174;29;20407;-81
2021/07/27 01:20:27;;;;;;;7.85;5.55;;;22.70;99.90;;;;;;4932007;29;20032;-79
2021/07/27 01:42:05;;;;;;;6.75;5.43;;;22.60;99.90;;;;;;4931795;28;20040;-75
2021/07/27 01:44:32;;;;;;;7.10;5.30;;;22.60;99.90;;;;;;4931545;29;20031;-77
2021/07/27 01:46:57;;;;;;;7.88;5.93;;;22.60;99.90;;;;;;4931937;29;20024;-79
2021/07/27 01:49:23;;;;;;;8.52;6.60;;;22.60;99.90;;;;;;4931411;28;20103;-75
2021/07/27 01:51:49;;;;;;;8.60;5.60;;;22.60;99.90;;;;;;4931688;29;20036;-81
2021/07/27 01:54:18;;;;;;;5.70;4.95;;;22.60;99.90;;;;;;4931264;28;20056;-82
2021/07/27 01:56:46;;;;;;;7.38;5.03;;;22.60;99.90;;;;;;4931671;28;20032;-80
2021/07/27 01:59:12;;;;;;;8.77;6.30;;;22.60;99.90;;;;;;4931578;28;20020;-80
2021/07/27 02:01:39;;;;;;;5.97;5.35;;;22.60;99.90;;;;;;4931542;28;20034;-83
2021/07/27 02:04:04;;;;;;;9.73;5.88;;;22.60;99.90;;;;;;4931564;29;20506;-77
2021/07/27 02:06:30;;;;;;;7.10;5.82;;;22.60;99.90;;;;;;4931099;28;20095;-80
2021/07/27 02:09:00;;;;;;;8.10;6.25;;;22.50;99.90;;;;;;4931298;29;20031;-79
2021/07/27 02:11:34;;;;;;;8.35;6.13;;;22.60;99.90;;;;;;4931510;29;20023;-85
2021/07/27 02:14:00;;;;;;;6.72;5.47;;;22.50;99.90;;;;;;4931575;29;20118;-81
2021/07/27 02:16:26;;;;;;;8.85;5.30;;;22.60;99.90;;;;;;4931209;29;20479;-78
2021/07/27 02:18:51;;;;;;;8.52;5.78;;;22.60;99.90;;;;;;4930103;28;20030;-79
2021/07/27 02:21:17;;;;;;;9.98;6.38;;;22.50;99.90;;;;;;4930941;29;20028;-78
2021/07/27 02:23:42;;;;;;;6.82;5.72;;;22.50;99.90;;;;;;4931208;29;20490;-79
2021/07/27 02:26:08;;;;;;;9.18;5.85;;;22.50;99.90;;;;;;4931303;29;20032;-81
2021/07/27 02:28:34;;;;;;;7.72;5.65;;;22.50;99.90;;;;;;4930893;29;20023;-84
2021/07/27 02:31:02;;;;;;;8.43;6.05;;;22.50;99.90;;;;;;4931357;29;20067;-80
2021/07/27 02:33:29;;;;;;;9.68;6.00;;;22.50;99.90;;;;;;4931086;29;20119;-79
2021/07/27 02:35:55;;;;;;;7.50;5.85;;;22.50;99.90;;;;;;4931003;29;20070;-78
2021/07/27 02:38:20;;;;;;;7.00;5.30;;;22.50;99.90;;;;;;4930913;29;20027;-81
2021/07/27 02:40:46;;;;;;;7.18;6.03;;;22.50;99.90;;;;;;4931036;29;20089;-80
2021/07/27 02:43:11;;;;;;;7.32;5.78;;;22.50;99.90;;;;;;4930913;28;20043;-80
2021/07/27 02:45:37;;;;;;;7.78;5.75;;;22.50;99.90;;;;;;4930670;28;20030;-79
2021/07/27 02:48:04;;;;;;;7.25;5.68;;;22.50;99.90;;;;;;4930911;28;20032;-80
2021/07/27 02:50:41;;;;;;;8.73;5.85;;;22.50;99.90;;;;;;4931008;29;20066;-80
2021/07/27 02:53:07;;;;;;;6.68;5.97;;;22.50;99.90;;;;;;4931038;29;20035;-78
2021/07/27 02:55:35;;;;;;;6.80;5.82;;;22.40;99.90;;;;;;4931156;28;20050;-83
2021/07/27 02:58:01;;;;;;;7.65;5.75;;;22.40;99.90;;;;;;4934355;28;20016;-77
2021/07/27 03:00:26;;;;;;;9.05;5.90;;;22.50;99.90;;;;;;4934177;29;20066;-75
2021/07/27 03:02:54;;;;;;;9.00;5.78;;;22.50;99.90;;;;;;4934248;29;20039;-78
2021/07/27 03:05:20;;;;;;;6.18;5.53;;;22.40;99.90;;;;;;4932641;29;20032;-77
2021/07/27 03:12:45;;;;;;;7.38;5.72;;;22.40;99.90;;;;;;4933899;29;20032;-82
2021/07/27 03:15:12;;;;;;;8.48;5.80;;;22.40;99.90;;;;;;4933957;29;20046;-80
2021/07/27 03:17:37;;;;;;;7.47;5.35;;;22.40;99.90;;;;;;4933328;28;20024;-79
2021/07/27 03:20:10;;;;;;;8.98;6.03;;;22.40;99.90;;;;;;4933975;29;20093;-80
2021/07/27 03:22:36;;;;;;;7.45;5.68;;;22.40;99.90;;;;;;4933612;29;20035;-76
2021/07/27 03:25:01;;;;;;;7.80;6.53;;;22.40;99.90;;;;;;4933994;29;20028;-78
2021/07/27 03:27:27;;;;;;;7.80;6.50;;;22.40;99.90;;;;;;4933758;28;20107;-81
2021/07/27 03:29:53;;;;;;;10.13;6.15;;;22.40;99.90;;;;;;4933553;29;20391;-80
2021/07/27 03:32:18;;;;;;;8.95;6.35;;;22.40;99.90;;;;;;4932200;29;20039;-82
2021/07/27 03:34:44;;;;;;;6.20;5.30;;;22.40;99.90;;;;;;4933777;28;20039;-81
2021/07/27 03:37:10;;;;;;;9.80;6.32;;;22.40;99.90;;;;;;4933640;28;20028;-82
2021/07/27 03:39:36;;;;;;;6.55;5.22;;;22.40;99.90;;;;;;4933368;28;20032;-85
2021/07/27 03:42:02;;;;;;;7.65;6.38;;;22.40;99.90;;;;;;4933709;29;20042;-82
2021/07/27 03:44:28;;;;;;;11.50;6.70;;;22.40;99.90;;;;;;4933398;29;20111;-78
2021/07/27 03:46:53;;;;;;;8.13;6.15;;;22.40;99.90;;;;;;4933519;28;20543;-77
2021/07/27 03:49:19;;;;;;;8.93;6.15;;;22.30;99.90;;;;;;4933135;29;20039;-79
2021/07/27 03:51:45;;;;;;;7.28;5.95;;;22.30;99.90;;;;;;4933799;28;20415;-80
2021/07/27 03:54:11;;;;;;;11.68;6.50;;;22.30;99.90;;;;;;4932005;28;20052;-77
2021/07/27 03:56:40;;;;;;;8.48;6.38;;;22.30;99.90;;;;;;4932042;28;20067;-75
2021/07/27 03:59:05;;;;;;;7.05;6.05;;;22.30;99.90;;;;;;4933129;28;20023;-81
2021/07/27 04:01:31;;;;;;;9.13;5.38;;;22.30;99.90;;;;;;4933291;29;20039;-76
2021/07/27 04:03:57;;;;;;;7.63;6.85;;;22.30;99.90;;;;;;4933281;28;20020;-78
2021/07/27 04:06:22;;;;;;;6.90;5.85;;;22.30;99.90;;;;;;4931629;29;20089;-75
2021/07/27 04:08:48;;;;;;;8.40;6.55;;;22.30;99.90;;;;;;4933378;29;20078;-77
2021/07/27 04:11:14;;;;;;;7.65;5.93;;;22.30;99.90;;;;;;4932999;28;20484;-82
2021/07/27 04:13:40;;;;;;;11.18;6.22;;;22.30;99.90;;;;;;4932997;29;20016;-78
2021/07/27 04:16:05;;;;;;;7.75;6.28;;;22.30;99.90;;;;;;4932814;29;20048;-75
2021/07/27 04:18:31;;;;;;;9.55;6.90;;;22.30;99.90;;;;;;4932985;29;20423;-80
2021/07/27 04:21:01;;;;;;;6.80;5.57;;;22.30;99.90;;;;;;4933021;29;20396;-79
2021/07/27 04:23:27;;;;;;;10.70;6.50;;;22.30;99.90;;;;;;4932732;29;20043;-78
2021/07/27 04:25:53;;;;;;;8.77;6.03;;;22.30;99.90;;;;;;4932816;28;20027;-80
2021/07/27 04:28:19;;;;;;;8.45;6.88;;;22.20;99.90;;;;;;4932664;29;20036;-81
2021/07/27 04:30:44;;;;;;;9.82;6.63;;;22.30;99.90;;;;;;4933103;29;20042;-78
2021/07/27 04:33:10;;;;;;;11.57;6.70;;;22.30;99.90;;;;;;4932864;29;20368;-76
2021/07/27 04:35:39;;;;;;;7.57;6.50;;;22.20;99.90;;;;;;4947214;29;20032;-76
2021/07/27 04:38:05;;;;;;;7.95;5.57;;;22.20;99.90;;;;;;4932742;28;20026;-79
2021/07/27 04:40:30;;;;;;;8.65;6.45;;;22.30;99.90;;;;;;4932810;28;20115;-80
2021/07/27 04:42:56;;;;;;;9.40;6.70;;;22.20;99.90;;;;;;4932466;28;20074;-75
2021/07/27 04:45:21;;;;;;;7.32;5.93;;;22.20;99.90;;;;;;4932491;29;20115;-74
2021/07/27 04:47:48;;;;;;;6.88;6.18;;;22.20;99.90;;;;;;4927779;29;20028;-75
2021/07/27 04:50:13;;;;;;;7.50;6.55;;;22.20;99.90;;;;;;4916709;29;20043;-77
2021/07/27 04:52:41;;;;;;;6.88;6.18;;;22.20;99.90;;;;;;4913260;29;20046;-73
2021/07/27 04:55:08;;;;;;;6.72;5.78;;;22.20;99.90;;;;;;4923920;29;20450;-80
2021/07/27 04:57:34;;;;;;;7.40;6.50;;;22.20;99.90;;;;;;4921258;28;20565;-88
2021/07/27 05:00:23;;;;;;;8.30;5.95;;;22.20;99.90;;;;;;4922769;29;20028;-79
2021/07/27 05:02:49;;;;;;;12.20;6.40;;;22.20;99.90;;;;;;4912579;29;20020;-79
2021/07/27 05:05:15;;;;;;;9.95;6.30;;;22.20;99.90;;;;;;4916235;28;20499;-79
2021/07/27 05:07:43;;;;;;;8.07;6.30;;;22.20;99.90;;;;;;4923591;28;20036;-83
2021/07/27 05:10:09;;;;;;;9.50;6.57;;;22.20;99.90;;;;;;4922271;29;20479;-77
2021/07/27 05:12:37;;;;;;;7.00;5.70;;;22.20;99.90;;;;;;4923006;29;20032;-81
2021/07/27 05:15:03;;;;;;;9.95;6.10;;;22.20;99.90;;;;;;4923605;29;20402;-77
2021/07/27 05:17:29;;;;;;;9.00;5.50;;;22.20;99.90;;;;;;4922794;29;20069;-79
2021/07/27 05:19:54;;;;;;;10.45;6.53;;;22.20;99.90;;;;;;4919272;29;20039;-77
2021/07/27 05:22:22;;;;;;;11.52;7.00;;;22.20;99.90;;;;;;4911718;29;20499;-81
2021/07/27 05:24:52;;;;;;;10.05;6.13;;;22.20;99.90;;;;;;4923217;29;20589;-80
2021/07/27 05:27:22;;;;;;;10.68;6.57;;;22.20;99.90;;;;;;4936493;28;20087;-76
2021/07/27 05:29:49;;;;;;;8.02;5.78;;;22.20;99.90;;;;;;4914977;28;20036;-80
2021/07/27 05:32:15;;;;;;;6.65;5.68;;;22.20;99.90;;;;;;4911565;29;20026;-79
2021/07/27 05:34:41;;;;;;;8.80;5.85;;;22.10;99.90;;;;;;4921791;29;20077;-79
2021/07/27 05:37:07;;;;;;;7.28;6.57;;;22.20;99.90;;;;;;4922160;28;20035;-79
2021/07/27 05:39:33;;;;;;;7.43;6.05;;;22.20;99.90;;;;;;4917542;29;20111;-77
2021/07/27 05:41:58;;;;;;;6.85;5.97;;;22.10;99.90;;;;;;4909844;29;20028;-77
2021/07/27 05:44:25;;;;;;;9.65;6.65;;;22.10;99.90;;;;;;4925699;29;20407;-76
2021/07/27 05:46:55;;;;;;;8.40;6.75;;;22.10;99.90;;;;;;4914828;29;20029;-78
2021/07/27 05:49:21;;;;;;;11.10;6.63;;;22.10;99.90;;;;;;4912581;28;20147;-78
2021/07/27 05:51:50;;;;;;;8.35;6.10;;;22.10;99.90;;;;;;4921653;28;20103;-76
2021/07/27 05:54:19;;;;;;;9.63;6.93;;;22.10;99.90;;;;;;4916261;28;20059;-77
2021/07/27 05:56:47;;;;;;;8.90;6.80;;;22.10;99.90;;;;;;4911971;28;20470;-75
2021/07/27 05:59:14;;;;;;;8.60;6.68;;;22.10;99.90;;;;;;4918036;29;20055;-79
2021/07/27 06:01:39;;;;;;;7.53;6.05;;;22.10;99.90;;;;;;4918335;29;20527;-81
2021/07/27 06:04:05;;;;;;;7.93;6.15;;;22.10;99.90;;;;;;4917540;29;20052;-77
2021/07/27 06:06:34;;;;;;;9.73;6.35;;;22.10;99.90;;;;;;4916898;29;20042;-75
2021/07/27 06:09:02;;;;;;;7.60;5.72;;;22.10;99.90;;;;;;4937640;28;20102;-84
2021/07/27 06:11:27;;;;;;;7.82;5.50;;;22.10;99.90;;;;;;4920634;29;20036;-76
2021/07/27 06:13:53;;;;;;;11.55;6.30;;;22.10;99.90;;;;;;4914521;28;20082;-85
2021/07/27 06:16:19;;;;;;;9.30;6.10;;;22.10;99.90;;;;;;4912316;29;20040;-77
2021/07/27 06:18:44;;;;;;;9.85;6.05;;;22.10;99.90;;;;;;4912696;29;20031;-81
2021/07/27 06:21:11;;;;;;;8.60;6.13;;;22.10;99.90;;;;;;4912750;29;20070;-78
2021/07/27 06:23:37;;;;;;;8.18;6.18;;;22.10;99.90;;;;;;4912480;29;20472;-78
2021/07/27 06:26:06;;;;;;;9.75;7.05;;;22.10;99.90;;;;;;4911439;29;20052;-75
2021/07/27 06:28:33;;;;;;;9.30;6.50;;;22.10;99.90;;;;;;4912314;29;20032;-76
2021/07/27 06:30:58;;;;;;;8.25;6.78;;;22.10;99.90;;;;;;4911602;29;20028;-73
2021/07/27 06:33:24;;;;;;;9.77;6.22;;;22.10;99.90;;;;;;4911772;29;20495;-74
2021/07/27 06:35:59;;;;;;;10.10;6.63;;;22.10;99.90;;;;;;4912301;29;20040;-75
2021/07/27 06:38:25;;;;;;;10.23;6.57;;;22.10;99.90;;;;;;4911868;29;20507;-75
2021/07/27 06:40:51;;;;;;;9.98;6.72;;;22.10;99.90;;;;;;4912317;29;20039;-74
2021/07/27 06:43:17;;;;;;;10.57;6.43;;;22.10;99.90;;;;;;4912111;28;20033;-75
2021/07/27 06:45:43;;;;;;;11.05;7.13;;;22.10;99.90;;;;;;4912192;28;20032;-77
2021/07/27 06:48:10;;;;;;;8.45;7.25;;;22.10;99.90;;;;;;4911863;29;20423;-88
2021/07/27 06:50:36;;;;;;;11.70;8.23;;;22.10;99.90;;;;;;4910713;29;20028;-88
2021/07/27 06:53:03;;;;;;;9.75;7.38;;;22.10;99.90;;;;;;4912550;28;20079;-80
2021/07/27 06:55:28;;;;;;;11.45;7.47;;;22.10;99.90;;;;;;4911889;29;20040;-83
2021/07/27 06:57:54;;;;;;;11.23;7.90;;;22.10;99.90;;;;;;4911981;29;20031;-84
2021/07/27 07:00:20;;;;;;;16.40;8.20;;;22.10;99.90;;;;;;4911643;29;20107;-80
2021/07/27 07:02:45;;;;;;;12.65;8.88;;;22.10;99.90;;;;;;4912237;29;20104;-77
2021/07/27 07:05:11;;;;;;;13.40;8.30;;;22.10;99.90;;;;;;4923003;28;20040;-79
2021/07/27 07:07:37;;;;;;;11.60;9.00;;;22.10;99.90;;;;;;4928764;29;20090;-82
2021/07/27 07:10:03;;;;;;;12.57;8.30;;;22.10;99.90;;;;;;4929437;28;20032;-83
2021/07/27 07:12:29;;;;;;;17.55;8.98;;;22.20;99.90;;;;;;4929581;29;20038;-81
2021/07/27 07:14:56;;;;;;;19.60;10.07;;;22.20;99.90;;;;;;4929998;29;20154;-80
2021/07/27 07:17:22;;;;;;;22.90;10.18;;;22.20;99.90;;;;;;4930363;29;20103;-85
2021/07/27 07:19:49;;;;;;;20.35;8.65;;;22.20;99.90;;;;;;4928882;29;20031;-82
2021/07/27 07:22:14;;;;;;;18.80;9.10;;;22.20;99.90;;;;;;4929571;29;20058;-79
2021/07/27 07:24:40;;;;;;;28.15;9.85;;;22.20;99.90;;;;;;4930467;28;20056;-81
2021/07/27 07:27:05;;;;;;;23.88;9.35;;;22.20;99.90;;;;;;4930671;28;20028;-80
2021/07/27 07:29:31;;;;;;;17.63;9.30;;;22.20;99.90;;;;;;4929590;29;20028;-80
2021/07/27 07:31:57;;;;;;;20.52;9.20;;;22.20;99.90;;;;;;4933841;29;20136;-81
2021/07/27 07:34:22;;;;;;;18.38;9.25;;;22.20;99.90;;;;;;4929398;29;20495;-81
2021/07/27 07:36:50;;;;;;;20.08;9.73;;;22.20;99.90;;;;;;4929656;29;20036;-79
2021/07/27 07:39:16;;;;;;;16.88;8.65;;;22.20;99.90;;;;;;4929649;29;20530;-81
2021/07/27 07:41:41;;;;;;;18.60;8.65;;;22.20;99.90;;;;;;4930466;29;20067;-80
2021/07/27 07:44:09;;;;;;;18.42;8.88;;;22.20;99.90;;;;;;4933508;29;20046;-82
2021/07/27 07:46:35;;;;;;;20.05;8.82;;;22.20;99.90;;;;;;4933562;28;20539;-81
2021/07/27 07:49:00;;;;;;;13.02;7.55;;;22.30;99.90;;;;;;4933396;28;20063;-79
2021/07/27 07:51:26;;;;;;;19.13;9.52;;;22.30;99.90;;;;;;4931892;29;20407;-83
2021/07/27 07:53:52;;;;;;;13.27;8.02;;;22.30;99.90;;;;;;4933494;29;20055;-80
2021/07/27 07:56:17;;;;;;;14.82;8.05;;;22.30;99.90;;;;;;4932547;29;20465;-79
2021/07/27 07:58:44;;;;;;;13.43;7.43;;;22.30;99.90;;;;;;4932870;29;20028;-77
2021/07/27 08:01:10;;;;;;;16.75;7.47;;;22.30;99.90;;;;;;4932643;29;20039;-78
2021/07/27 08:03:36;;;;;;;15.05;7.07;;;22.30;99.90;;;;;;4933283;29;20015;-78
2021/07/27 08:06:02;;;;;;;12.40;7.95;;;22.30;99.90;;;;;;4933300;29;20028;-79
2021/07/27 08:08:27;;;;;;;12.70;7.05;;;22.30;99.90;;;;;;4933092;29;20127;-76
2021/07/27 08:10:53;;;;;;;14.80;7.28;;;22.30;99.90;;;;;;4933218;29;20042;-77
2021/07/27 08:13:19;;;;;;;16.75;8.15;;;22.30;99.90;;;;;;4932942;29;20111;-82
2021/07/27 08:15:46;;;;;;;19.00;8.75;;;22.30;99.90;;;;;;4932962;29;20122;-75
2021/07/27 08:18:11;;;;;;;19.40;6.68;;;22.30;99.90;;;;;;4968743;28;20023;-75
2021/07/27 08:20:37;;;;;;;16.50;7.97;;;22.30;99.90;;;;;;4932690;28;20032;-76
2021/07/27 08:23:04;;;;;;;18.33;7.18;;;22.30;99.90;;;;;;4931998;29;20111;-72
2021/07/27 08:25:30;;;;;;;11.15;6.85;;;22.30;99.90;;;;;;4932773;28;20036;-74
2021/07/27 08:27:56;;;;;;;19.55;7.47;;;22.30;99.90;;;;;;4932028;29;20035;-73
2021/07/27 08:30:21;;;;;;;14.02;7.05;;;22.30;99.90;;;;;;4932304;29;20101;-72
2021/07/27 08:32:50;;;;;;;21.33;8.18;;;22.30;99.90;;;;;;4931158;28;20114;-76
2021/07/27 08:35:18;;;;;;;11.48;6.80;;;22.40;99.90;;;;;;4932135;29;20046;-77
2021/07/27 08:37:44;;;;;;;14.10;7.13;;;22.30;99.90;;;;;;4931355;28;20081;-79
2021/07/27 08:40:10;;;;;;;13.13;6.22;;;22.30;99.90;;;;;;4932442;29;20032;-76
2021/07/27 08:42:39;;;;;;;12.95;6.72;;;22.30;99.90;;;;;;4930118;29;20553;-73
2021/07/27 08:45:06;;;;;;;12.38;6.82;;;22.30;99.90;;;;;;4932799;29;20020;-76
2021/07/27 08:47:32;;;;;;;13.43;6.75;;;22.30;99.90;;;;;;4932059;29;20552;-76
2021/07/27 08:50:00;;;;;;;11.05;6.32;;;22.30;99.90;;;;;;4931100;28;20119;-79
2021/07/27 08:52:26;;;;;;;13.48;7.03;;;22.30;99.90;;;;;;4930844;28;20031;-78
2021/07/27 08:54:51;;;;;;;12.98;6.63;;;22.30;99.90;;;;;;4931971;29;20399;-80
2021/07/27 08:57:17;;;;;;;18.85;7.22;;;22.30;99.90;;;;;;4931617;29;20066;-79
2021/07/27 08:59:43;;;;;;;11.55;7.18;;;22.30;99.90;;;;;;4932114;29;20036;-84
2021/07/27 09:02:08;;;;;;;18.58;7.18;;;22.30;99.90;;;;;;4930620;29;21739;-83
2021/07/27 09:04:34;;;;;;;12.80;8.00;;;22.30;99.90;;;;;;4931557;29;20031;-80
2021/07/27 09:07:02;;;;;;;21.92;8.32;;;22.30;99.90;;;;;;4931573;29;20039;-78
2021/07/27 09:09:32;;;;;;;12.18;7.15;;;22.30;99.90;;;;;;4930717;29;20161;-79
2021/07/27 09:12:00;;;;;;;12.38;6.70;;;22.30;99.90;;;;;;4931541;29;20062;-83
2021/07/27 09:14:26;;;;;;;13.85;6.70;;;22.40;99.90;;;;;;4932111;29;20070;-85
2021/07/27 09:16:56;;;;;;;20.17;8.85;;;22.40;99.90;;;;;;4931017;29;20039;-81
2021/07/27 09:19:22;;;;;;;15.38;6.88;;;22.40;99.90;;;;;;4926633;29;20051;-83
2021/07/27 09:21:48;;;;;;;17.90;8.15;;;22.40;99.90;;;;;;4913154;28;20385;-85
2021/07/27 09:24:20;;;;;;;15.23;7.15;;;22.40;99.90;;;;;;4912665;29;20031;-75
2021/07/27 09:27:03;;;;;;;15.77;7.68;;;22.40;99.90;;;;;;4920547;29;20535;-82
2021/07/27 09:29:30;;;;;;;15.32;8.40;;;22.40;99.90;;;;;;4931761;29;20077;-82
2021/07/27 09:31:58;;;;;;;13.35;6.70;;;22.40;99.90;;;;;;4931445;28;20391;-81
2021/07/27 09:34:25;;;;;;;16.05;7.28;;;22.50;99.90;;;;;;4931640;29;20069;-82
2021/07/27 09:37:25;;;;;;;14.77;8.10;;;22.50;99.90;;;;;;4931474;29;20429;-81
2021/07/27 09:39:51;;;;;;;10.98;6.80;;;22.50;99.90;;;;;;4925254;29;20039;-80
2021/07/27 09:42:17;;;;;;;16.60;7.28;;;22.50;99.90;;;;;;4931414;29;20031;-82
2021/07/27 09:44:43;;;;;;;16.65;8.32;;;22.60;99.90;;;;;;4931629;29;20503;-81
2021/07/27 09:47:09;;;;;;;15.93;7.57;;;22.60;99.90;;;;;;4931604;29;20028;-78
2021/07/27 09:49:35;;;;;;;17.55;7.75;;;22.60;99.90;;;;;;4931340;29;20122;-78
2021/07/27 09:52:01;;;;;;;21.27;9.38;;;22.60;99.90;;;;;;4931446;29;20019;-80
2021/07/27 09:54:27;;;;;;;21.88;8.73;;;22.60;99.90;;;;;;4931269;29;20082;-79
2021/07/27 09:56:54;;;;;;;25.20;9.57;;;22.70;99.90;;;;;;4931566;29;20027;-75
2021/07/27 09:59:22;;;;;;;25.55;9.00;;;22.70;99.90;;;;;;4931325;29;20482;-77
2021/07/27 10:02:05;;;;;;;16.83;8.55;;;22.70;99.90;;;;;;4931329;29;20539;-79
2021/07/27 10:04:36;;;;;;;18.38;8.07;;;22.70;99.90;;;;;;4931430;29;20038;-79
2021/07/27 10:07:04;;;;;;;23.70;8.05;;;;;;;;;;4930916;28;20490;-73
2021/07/27 10:09:34;;;;;;;16.20;8.35;;;22.70;99.90;;;;;;4930993;29;20066;-78
2021/07/27 10:12:12;;;;;;;19.02;7.90;;;22.70;99.90;;;;;;4931015;29;20032;-74
2021/07/27 10:14:45;;;;;;;15.05;7.63;;;22.80;99.90;;;;;;4931100;29;20027;-74
2021/07/27 10:17:11;;;;;;;17.60;8.50;;;22.80;99.90;;;;;;4929746;29;20086;-76
2021/07/27 10:19:45;;;;;;;20.85;8.70;;;22.80;99.90;;;;;;4929745;28;20023;-73
2021/07/27 10:22:12;;;;;;;18.50;9.00;;;22.80;99.90;;;;;;4930131;29;20032;-80
2021/07/27 10:24:38;;;;;;;15.82;8.60;;;22.80;99.90;;;;;;4925924;29;20056;-79
2021/07/27 10:27:16;;;;;;;17.08;9.27;;;22.90;99.90;;;;;;4929843;28;20055;-77
2021/07/27 10:29:42;;;;;;;22.05;11.43;;;22.90;99.90;;;;;;4929843;29;20026;-74
2021/07/27 10:32:15;;;;;;;26.40;10.93;;;22.90;99.90;;;;;;4929625;29;20031;-82
2021/07/27 10:34:43;;;;;;;17.52;10.05;;;22.90;99.90;;;;;;4927188;29;20026;-75
2021/07/27 10:37:11;;;;;;;16.50;10.95;;;23.00;99.90;;;;;;4929803;28;20070;-79
2021/07/27 10:39:57;;;;;;;19.50;9.93;;;23.00;99.90;;;;;;4929618;28;20497;-77
2021/07/27 10:42:25;;;;;;;17.98;9.63;;;23.00;99.90;;;;;;4926953;29;20040;-83
2021/07/27 10:44:52;;;;;;;22.92;9.73;;;23.00;99.90;;;;;;4929647;28;20506;-77
2021/07/27 10:47:22;;;;;;;24.08;9.50;;;23.10;99.90;;;;;;4928783;28;20083;-80
2021/07/27 10:49:58;;;;;;;17.05;8.35;;;23.10;99.90;;;;;;4928997;29;20048;-83
2021/07/27 10:52:25;;;;;;;17.70;8.02;;;23.10;99.90;;;;;;4926900;29;20047;-78
2021/07/27 10:54:56;;;;;;;19.45;9.02;;;23.10;99.90;;;;;;4929409;29;20028;-78
2021/07/27 10:57:27;;;;;;;16.10;7.65;;;23.20;99.90;;;;;;4929215;29;20538;-80
2021/07/27 10:59:52;;;;;;;16.20;7.85;;;23.20;99.90;;;;;;4926108;29;20486;-77
2021/07/27 11:02:23;;;;;;;14.60;7.78;;;23.20;99.90;;;;;;4927391;28;20107;-77
2021/07/27 11:04:48;;;;;;;13.02;8.27;;;23.30;99.90;;;;;;4929358;29;20035;-75
2021/07/27 11:07:16;;;;;;;12.68;7.78;;;23.30;99.90;;;;;;4930017;28;20132;-76
2021/07/27 11:09:53;;;;;;;14.32;7.55;;;23.30;99.90;;;;;;4929986;28;20024;-77
2021/07/27 11:12:39;;;;;;;12.73;6.72;;;23.30;99.90;;;;;;4930494;29;20110;-81
2021/07/27 11:15:07;;;;;;;11.10;7.10;;;23.40;99.90;;;;;;4930441;29;20491;-78
2021/07/27 11:17:33;;;;;;;16.83;8.20;;;23.40;99.90;;;;;;4933334;29;20166;-79
2021/07/27 11:19:59;;;;;;;9.45;7.05;;;23.40;99.90;;;;;;4933931;29;20115;-78
2021/07/27 11:22:26;;;;;;;12.45;7.22;;;23.40;99.90;;;;;;4931996;29;20118;-77
2021/07/27 11:24:56;;;;;;;12.23;7.13;;;23.40;99.90;;;;;;4933483;28;20026;-77
2021/07/27 11:27:33;;;;;;;9.45;6.85;;;23.40;99.90;;;;;;4933372;29;20032;-75
2021/07/27 11:30:00;;;;;;;11.55;7.45;;;23.40;99.90;;;;;;4933792;29;20028;-78
2021/07/27 11:32:49;;;;;;;11.50;7.32;;;23.40;99.90;;;;;;4932043;28;20023;-76
2021/07/27 11:35:17;;;;;;;14.32;7.75;;;23.40;99.90;;;;;;4928905;29;20032;-76
2021/07/27 11:37:44;;;;;;;16.80;6.93;;;23.40;99.90;;;;;;4931796;29;20107;-78
2021/07/27 11:40:24;;;;;;;9.70;7.03;;;23.40;99.90;;;;;;4932269;28;20024;-76
2021/07/27 11:43:06;;;;;;;9.63;6.57;;;23.40;99.90;;;;;;4931751;29;20395;-76
2021/07/27 11:45:36;;;;;;;11.10;7.05;;;23.50;99.90;;;;;;4933035;29;20035;-74
2021/07/27 11:48:03;;;;;;;13.93;8.00;;;23.50;99.90;;;;;;4931783;29;20113;-81
2021/07/27 11:50:30;;;;;;;13.10;6.85;;;23.50;99.90;;;;;;4931690;29;20031;-77
2021/07/27 11:53:07;;;;;;;12.70;8.25;;;23.50;99.90;;;;;;4932369;29;20398;-81
2021/07/27 11:55:34;;;;;;;9.38;6.85;;;23.50;99.90;;;;;;4933159;29;20063;-77
2021/07/27 11:58:01;;;;;;;11.77;7.15;;;23.50;99.90;;;;;;4933177;29;20539;-75
2021/07/27 12:00:27;;;;;;;10.15;7.03;;;23.50;99.90;;;;;;4935445;29;20036;-75
2021/07/27 12:02:53;;;;;;;12.50;7.22;;;23.50;99.90;;;;;;4933448;28;20028;-79
2021/07/27 12:05:19;;;;;;;9.80;7.63;;;23.40;99.90;;;;;;4931546;28;20032;-76
2021/07/27 12:07:45;;;;;;;10.10;7.78;;;23.40;99.90;;;;;;4932871;29;20476;-77
2021/07/27 12:10:11;;;;;;;11.70;6.93;;;23.40;99.90;;;;;;4933569;29;20376;-79
2021/07/27 12:12:37;;;;;;;8.93;6.75;;;23.40;99.90;;;;;;4932708;29;20028;-82
2021/07/27 12:15:04;;;;;;;10.50;7.95;;;23.40;99.90;;;;;;4931450;29;20506;-79
2021/07/27 12:17:30;;;;;;;10.40;7.25;;;23.40;99.90;;;;;;4932893;29;20108;-79
2021/07/27 12:19:55;;;;;;;9.02;6.30;;;23.40;99.90;;;;;;4932902;28;20106;-80
2021/07/27 12:22:21;;;;;;;15.23;7.30;;;23.40;99.90;;;;;;4932185;29;20035;-80
2021/07/27 12:24:47;;;;;;;9.30;6.50;;;23.50;99.90;;;;;;4933131;29;20030;-81
2021/07/27 12:27:13;;;;;;;9.23;6.47;;;23.40;99.90;;;;;;4932184;29;20103;-80
2021/07/27 12:29:38;;;;;;;10.40;6.70;;;23.50;99.90;;;;;;4933122;28;20027;-78
2021/07/27 12:32:04;;;;;;;10.73;6.72;;;23.50;99.90;;;;;;4932897;28;20028;-80
2021/07/27 12:34:30;;;;;;;9.38;6.78;;;23.40;99.90;;;;;;4932498;28;20024;-80
2021/07/27 12:36:56;;;;;;;10.02;6.32;;;23.40;99.90;;;;;;4932979;29;20479;-78
2021/07/27 12:39:23;;;;;;;9.80;5.95;;;23.50;99.90;;;;;;4932628;29;20394;-81
2021/07/27 12:41:49;;;;;;;8.93;7.15;;;23.50;99.90;;;;;;4932809;29;20245;-83
2021/07/27 12:44:16;;;;;;;11.18;6.28;;;23.50;99.90;;;;;;4946440;29;20027;-79
2021/07/27 12:46:43;;;;;;;10.13;6.03;;;23.50;99.90;;;;;;4932841;29;20028;-82
2021/07/27 12:49:13;;;;;;;8.55;6.30;;;23.50;99.90;;;;;;4932905;28;20043;-80
2021/07/27 12:51:39;;;;;;;9.00;6.57;;;23.50;99.90;;;;;;4932791;29;20020;-78
2021/07/27 12:54:04;;;;;;;7.65;6.60;;;23.50;99.90;;;;;;4932547;29;20055;-78
2021/07/27 12:56:30;;;;;;;9.55;6.65;;;23.50;99.90;;;;;;4932385;28;20031;-82
2021/07/27 12:58:58;;;;;;;9.02;5.97;;;23.50;99.90;;;;;;4932356;28;20377;-79
2021/07/27 13:01:24;;;;;;;8.00;5.85;;;23.50;99.90;;;;;;4932187;29;20407;-79
2021/07/27 13:03:49;;;;;;;8.07;6.93;;;23.50;99.90;;;;;;4932631;29;20030;-76
2021/07/27 13:06:15;;;;;;;8.45;6.03;;;23.50;99.90;;;;;;4932153;28;20137;-81
2021/07/27 13:08:41;;;;;;;7.30;5.22;;;23.50;99.90;;;;;;4932749;29;20106;-80